createdAt,value
2022-11-29T00:01:34.846Z,98409.44
2022-11-29T00:04:02.120Z,98406.66
2022-11-29T00:06:32.237Z,98402.69
2022-11-29T00:09:04.474Z,98413.94
2022-11-29T00:11:53.013Z,98406.78
2022-11-29T00:14:20.549Z,98395.75
2022-11-29T00:17:02.227Z,98395.50
2022-11-29T00:19:29.770Z,98387.94
2022-11-29T00:21:56.841Z,98383.34
2022-11-29T00:24:23.814Z,98381.12
2022-11-29T00:26:50.671Z,98380.53
2022-11-29T00:29:17.434Z,98384.50
2022-11-29T00:31:44.878Z,98380.91
2022-11-29T00:34:12.170Z,98385.41
2022-11-29T00:36:39.948Z,98382.34
2022-11-29T00:39:07.168Z,98386.69
2022-11-29T00:41:34.259Z,98390.53
2022-11-29T00:44:01.198Z,98384.87
2022-11-29T00:46:28.140Z,98391.00
2022-11-29T00:48:55.065Z,98389.81
2022-11-29T00:51:21.956Z,98387.28
2022-11-29T00:53:49.004Z,98393.78
2022-11-29T00:56:16.397Z,98392.44
2022-11-29T00:58:44.311Z,98386.97
2022-11-29T01:01:11.903Z,98389.91
2022-11-29T01:03:38.959Z,98397.97
2022-11-29T01:06:08.347Z,98398.09
2022-11-29T01:08:35.517Z,98395.25
2022-11-29T01:11:09.551Z,98384.84
2022-11-29T01:13:36.712Z,98392.03
2022-11-29T01:16:04.919Z,98384.47
2022-11-29T01:18:32.335Z,98384.53
2022-11-29T01:21:07.063Z,98371.72
2022-11-29T01:23:34.846Z,98382.47
2022-11-29T01:26:07.670Z,98384.97
2022-11-29T01:28:35.123Z,98379.06
2022-11-29T01:31:13.881Z,98381.28
2022-11-29T01:33:40.958Z,98376.06
2022-11-29T01:36:08.584Z,98382.38
2022-11-29T01:38:36.428Z,98384.16
2022-11-29T01:41:19.707Z,98391.25
2022-11-29T01:44:14.593Z,98372.41
2022-11-29T01:46:43.926Z,98381.38
2022-11-29T01:49:16.121Z,98381.34
2022-11-29T01:51:47.002Z,98381.00
2022-11-29T01:54:14.653Z,98378.03
2022-11-29T01:56:42.139Z,98376.00
2022-11-29T01:59:13.734Z,98383.66
2022-11-29T02:01:40.792Z,98382.66
2022-11-29T02:04:08.007Z,98391.72
2022-11-29T02:06:35.846Z,98377.81
2022-11-29T02:09:03.535Z,98367.47
2022-11-29T02:11:46.601Z,98375.69
2022-11-29T02:14:56.184Z,98381.53
2022-11-29T02:17:52.202Z,98377.87
2022-11-29T02:20:21.605Z,98374.78
2022-11-29T02:23:06.609Z,98374.03
2022-11-29T02:25:51.848Z,98378.28
2022-11-29T02:29:03.041Z,98384.19
2022-11-29T02:31:38.943Z,98380.72
2022-11-29T02:34:18.148Z,98385.50
2022-11-29T02:36:51.730Z,98375.97
2022-11-29T02:39:44.304Z,98384.09
2022-11-29T02:42:56.610Z,98381.28
2022-11-29T02:45:49.534Z,98379.41
2022-11-29T02:48:34.082Z,98386.34
2022-11-29T02:51:06.654Z,98394.28
2022-11-29T02:53:56.380Z,98389.75
2022-11-29T02:56:41.039Z,98393.94
2022-11-29T02:59:17.008Z,98393.91
2022-11-29T03:01:53.670Z,98392.50
2022-11-29T03:05:04.226Z,98393.69
2022-11-29T03:07:34.295Z,98386.84
2022-11-29T03:10:08.776Z,98394.50
2022-11-29T03:12:42.580Z,98388.88
2022-11-29T03:15:48.636Z,98397.00
2022-11-29T03:18:25.992Z,98403.41
2022-11-29T03:20:52.693Z,98399.47
2022-11-29T03:23:32.518Z,98394.53
2022-11-29T03:26:07.995Z,98400.66
2022-11-29T03:28:42.039Z,98401.00
2022-11-29T03:31:21.593Z,98406.38
2022-11-29T03:34:01.374Z,98404.91
2022-11-29T03:36:30.269Z,98410.06
2022-11-29T03:39:01.170Z,98410.75
2022-11-29T03:41:33.563Z,98422.53
2022-11-29T03:44:19.395Z,98407.87
2022-11-29T03:47:07.211Z,98407.91
2022-11-29T03:49:48.257Z,98407.03
2022-11-29T03:52:23.967Z,98409.34
2022-11-29T03:55:09.086Z,98415.87
2022-11-29T03:57:59.591Z,98415.63
2022-11-29T04:00:30.130Z,98414.88
2022-11-29T04:03:21.356Z,98415.13
2022-11-29T04:06:20.936Z,98419.09
2022-11-29T04:08:56.363Z,98413.69
2022-11-29T04:12:04.937Z,98421.31
2022-11-29T04:14:34.990Z,98416.59
2022-11-29T04:17:49.328Z,98421.72
2022-11-29T04:20:48.594Z,98418.22
2022-11-29T04:23:43.680Z,98438.91
2022-11-29T04:26:44.576Z,98433.91
2022-11-29T04:29:22.555Z,98434.44
2022-11-29T04:32:07.613Z,98437.31
2022-11-29T04:34:56.173Z,98440.28
2022-11-29T04:37:34.987Z,98451.94
2022-11-29T04:40:22.497Z,98442.16
2022-11-29T04:43:28.129Z,98448.13
2022-11-29T04:46:05.783Z,98447.31
2022-11-29T04:48:38.445Z,98449.34
2022-11-29T04:51:34.626Z,98454.34
2022-11-29T04:54:40.362Z,98460.03
2022-11-29T04:57:33.352Z,98458.53
2022-11-29T05:00:16.423Z,98454.75
2022-11-29T05:02:55.050Z,98461.28
2022-11-29T05:05:43.758Z,98465.72
2022-11-29T05:08:24.418Z,98474.28
2022-11-29T05:10:51.215Z,98458.09
2022-11-29T05:13:24.125Z,98474.97
2022-11-29T05:16:07.936Z,98474.13
2022-11-29T05:19:02.457Z,98469.91
2022-11-29T05:21:34.915Z,98471.91
2022-11-29T05:24:17.345Z,98468.59
2022-11-29T05:27:11.004Z,98472.47
2022-11-29T05:29:52.154Z,98471.41
2022-11-29T05:32:57.967Z,98479.13
2022-11-29T05:35:46.561Z,98478.94
2022-11-29T05:38:39.493Z,98476.84
2022-11-29T05:41:44.312Z,98477.81
2022-11-29T05:44:17.734Z,98480.59
2022-11-29T05:46:59.503Z,98478.97
2022-11-29T05:49:37.025Z,98480.66
2022-11-29T05:52:17.095Z,98490.06
2022-11-29T05:55:02.243Z,98497.84
2022-11-29T05:57:55.873Z,98485.84
2022-11-29T06:00:23.186Z,98489.63
2022-11-29T06:03:31.571Z,98498.06
2022-11-29T06:06:08.326Z,98489.56
2022-11-29T06:09:13.456Z,98498.56
2022-11-29T06:11:47.838Z,98503.56
2022-11-29T06:14:21.646Z,98496.19
2022-11-29T06:17:10.103Z,98497.03
2022-11-29T06:19:53.340Z,98496.31
2022-11-29T06:22:58.578Z,98492.63
2022-11-29T06:25:39.507Z,98502.59
2022-11-29T06:28:09.271Z,98514.28
2022-11-29T06:30:55.807Z,98507.19
2022-11-29T06:33:25.727Z,98505.53
2022-11-29T06:36:10.453Z,98516.31
2022-11-29T06:38:37.602Z,98512.94
2022-11-29T06:41:04.798Z,98523.56
2022-11-29T06:43:32.103Z,98525.69
2022-11-29T06:46:16.379Z,98525.84
2022-11-29T06:49:01.891Z,98518.31
2022-11-29T06:51:42.188Z,98530.56
2022-11-29T06:54:16.893Z,98530.94
2022-11-29T06:56:51.846Z,98525.50
2022-11-29T06:59:57.543Z,98530.28
2022-11-29T07:02:44.820Z,98513.13
2022-11-29T07:05:17.297Z,98523.88
2022-11-29T07:07:44.526Z,98523.88
2022-11-29T07:10:17.420Z,98525.94
2022-11-29T07:12:48.898Z,98528.25
2022-11-29T07:15:21.368Z,98528.41
2022-11-29T07:18:29.023Z,98532.78
2022-11-29T07:21:31.274Z,98536.44
2022-11-29T07:24:04.200Z,98544.44
2022-11-29T07:26:41.126Z,98537.37
2022-11-29T07:29:35.924Z,98536.69
2022-11-29T07:32:23.799Z,98536.41
2022-11-29T07:34:56.615Z,98549.81
2022-11-29T07:37:39.582Z,98539.13
2022-11-29T07:40:37.816Z,98535.09
2022-11-29T07:43:23.473Z,98536.28
2022-11-29T07:45:50.571Z,98539.34
2022-11-29T07:48:18.096Z,98540.63
2022-11-29T07:50:45.543Z,98536.16
2022-11-29T07:53:17.916Z,98543.03
2022-11-29T07:55:45.195Z,98549.81
2022-11-29T07:58:13.500Z,98541.53
2022-11-29T08:00:42.427Z,98554.72
2022-11-29T08:03:10.112Z,98557.09
2022-11-29T08:05:38.676Z,98552.66
2022-11-29T08:08:06.282Z,98549.91
2022-11-29T08:10:33.203Z,98556.78
2022-11-29T08:13:00.050Z,98548.69
2022-11-29T08:15:27.632Z,98548.06
2022-11-29T08:17:54.520Z,98550.88
2022-11-29T08:20:21.338Z,98550.59
2022-11-29T08:23:00.728Z,98548.69
2022-11-29T08:25:28.176Z,98541.41
2022-11-29T08:27:56.835Z,98550.22
2022-11-29T08:30:44.890Z,98539.25
2022-11-29T08:33:24.609Z,98550.34
2022-11-29T08:35:51.461Z,98552.44
2022-11-29T08:38:18.105Z,98556.28
2022-11-29T08:40:44.997Z,98555.50
2022-11-29T08:43:11.893Z,98561.03
2022-11-29T08:45:38.799Z,98550.56
2022-11-29T08:48:06.106Z,98562.84
2022-11-29T08:50:33.353Z,98556.56
2022-11-29T08:53:18.609Z,98566.63
2022-11-29T08:55:46.820Z,98556.81
2022-11-29T08:58:15.342Z,98562.19
2022-11-29T09:00:46.532Z,98555.72
2022-11-29T09:03:31.858Z,98558.97
2022-11-29T09:05:59.830Z,98556.91
2022-11-29T09:08:26.763Z,98557.19
2022-11-29T09:10:53.695Z,98558.13
2022-11-29T09:13:20.641Z,98564.66
2022-11-29T09:15:47.539Z,98562.47
2022-11-29T09:18:14.419Z,98564.56
2022-11-29T09:20:44.713Z,98563.75
2022-11-29T09:23:13.219Z,98565.97
2022-11-29T09:25:40.194Z,98564.62
2022-11-29T09:28:07.617Z,98571.25
2022-11-29T09:30:36.709Z,98566.56
2022-11-29T09:33:05.078Z,98557.16
2022-11-29T09:35:32.295Z,98560.78
2022-11-29T09:37:59.269Z,98554.25
2022-11-29T09:40:38.296Z,98566.88
2022-11-29T09:43:21.421Z,98561.09
2022-11-29T09:45:51.983Z,98556.81
2022-11-29T09:48:59.509Z,98546.22
2022-11-29T09:51:54.017Z,98548.53
2022-11-29T09:55:02.223Z,98549.06
2022-11-29T09:57:30.075Z,98551.41
2022-11-29T10:00:00.718Z,98549.56
2022-11-29T10:02:33.752Z,98552.22
2022-11-29T10:05:12.487Z,98552.06
2022-11-29T10:08:02.513Z,98545.44
2022-11-29T10:10:41.736Z,98553.75
2022-11-29T10:13:23.441Z,98545.66
2022-11-29T10:15:55.817Z,98542.09
2022-11-29T10:18:36.625Z,98531.00
2022-11-29T10:21:12.832Z,98531.44
2022-11-29T10:23:44.447Z,98529.06
2022-11-29T10:26:12.948Z,98527.69
2022-11-29T10:28:45.157Z,98527.78
2022-11-29T10:31:32.205Z,98516.38
2022-11-29T10:34:01.517Z,98519.38
2022-11-29T10:36:33.552Z,98526.19
2022-11-29T10:39:11.414Z,98525.69
2022-11-29T10:41:41.137Z,98517.41
2022-11-29T10:44:12.613Z,98527.34
2022-11-29T10:46:39.532Z,98525.47
2022-11-29T10:49:11.073Z,98521.66
2022-11-29T10:51:39.121Z,98518.03
2022-11-29T10:54:37.954Z,98515.00
2022-11-29T10:57:09.860Z,98519.50
2022-11-29T10:59:36.723Z,98519.62
2022-11-29T11:02:04.635Z,98515.88
2022-11-29T11:04:37.946Z,98511.00
2022-11-29T11:07:05.276Z,98512.44
2022-11-29T11:09:43.098Z,98519.50
2022-11-29T11:12:17.349Z,98507.59
2022-11-29T11:14:45.394Z,98511.66
2022-11-29T11:17:26.455Z,98503.25
2022-11-29T11:20:19.647Z,98491.91
2022-11-29T11:22:59.381Z,98489.81
2022-11-29T11:25:38.305Z,98486.91
2022-11-29T11:28:24.365Z,98488.34
2022-11-29T11:30:54.450Z,98485.97
2022-11-29T11:33:34.225Z,98488.25
2022-11-29T11:36:20.419Z,98487.50
2022-11-29T11:38:53.493Z,98484.84
2022-11-29T11:41:45.975Z,98483.66
2022-11-29T11:44:46.866Z,98496.06
2022-11-29T11:47:20.836Z,98490.81
2022-11-29T11:49:50.722Z,98499.03
2022-11-29T11:52:26.295Z,98497.50
2022-11-29T11:55:01.070Z,98503.47
2022-11-29T11:57:28.311Z,98503.47
2022-11-29T12:00:02.040Z,98508.59
2022-11-29T12:02:40.333Z,98514.50
2022-11-29T12:05:14.260Z,98511.22
2022-11-29T12:08:07.384Z,98511.69
2022-11-29T12:10:35.071Z,98501.47
2022-11-29T12:13:02.283Z,98513.78
2022-11-29T12:15:33.427Z,98506.72
2022-11-29T12:18:12.570Z,98508.19
2022-11-29T12:21:02.001Z,98510.84
2022-11-29T12:23:46.746Z,98508.69
2022-11-29T12:26:57.535Z,98510.94
2022-11-29T12:29:27.544Z,98503.53
2022-11-29T12:32:25.444Z,98516.75
2022-11-29T12:35:18.637Z,98514.69
2022-11-29T12:37:54.998Z,98512.03
2022-11-29T12:40:40.389Z,98516.41
2022-11-29T12:43:45.843Z,98506.47
2022-11-29T12:46:18.961Z,98512.31
2022-11-29T12:49:12.189Z,98508.84
2022-11-29T12:52:07.185Z,98502.47
2022-11-29T12:54:43.427Z,98499.69
2022-11-29T12:57:43.820Z,98497.03
2022-11-29T13:00:17.048Z,98501.59
2022-11-29T13:03:05.255Z,98499.84
2022-11-29T13:05:38.189Z,98498.84
2022-11-29T13:08:14.067Z,98503.31
2022-11-29T13:10:58.624Z,98502.94
2022-11-29T13:13:41.410Z,98494.91
2022-11-29T13:16:40.512Z,98499.47
2022-11-29T13:19:27.773Z,98497.38
2022-11-29T13:22:20.916Z,98497.56
2022-11-29T13:24:51.195Z,98491.94
2022-11-29T13:27:23.775Z,98501.16
2022-11-29T13:29:51.054Z,98501.25
2022-11-29T13:32:35.888Z,98494.63
2022-11-29T13:35:30.384Z,98499.41
2022-11-29T13:38:21.629Z,98496.94
2022-11-29T13:40:54.794Z,98497.50
2022-11-29T13:43:45.756Z,98490.03
2022-11-29T13:46:30.303Z,98494.06
2022-11-29T13:48:57.375Z,98496.12
2022-11-29T13:51:28.922Z,98494.28
2022-11-29T13:53:57.002Z,98498.72
2022-11-29T13:56:37.047Z,98490.72
2022-11-29T13:59:09.400Z,98489.56
2022-11-29T14:01:47.909Z,98498.13
2022-11-29T14:04:39.320Z,98505.50
2022-11-29T14:07:19.820Z,98509.09
2022-11-29T14:09:59.534Z,98505.38
2022-11-29T14:12:39.710Z,98503.53
2022-11-29T14:15:27.797Z,98498.34
2022-11-29T14:18:05.406Z,98504.91
2022-11-29T14:20:32.639Z,98503.53
2022-11-29T14:23:05.698Z,98493.66
2022-11-29T14:25:55.470Z,98502.31
2022-11-29T14:28:22.270Z,98502.53
2022-11-29T14:30:52.621Z,98502.75
2022-11-29T14:33:29.297Z,98513.09
2022-11-29T14:36:19.364Z,98512.31
2022-11-29T14:38:51.819Z,98510.88
2022-11-29T14:41:46.212Z,98506.16
2022-11-29T14:44:30.248Z,98505.94
2022-11-29T14:47:07.232Z,98503.66
2022-11-29T14:49:42.480Z,98504.66
2022-11-29T14:52:15.659Z,98499.37
2022-11-29T14:55:14.564Z,98497.28
2022-11-29T14:57:47.491Z,98498.06
2022-11-29T15:00:24.345Z,98497.94
2022-11-29T15:02:55.634Z,98490.69
2022-11-29T15:05:35.395Z,98487.84
2022-11-29T15:08:15.310Z,98490.97
2022-11-29T15:10:52.149Z,98502.34
2022-11-29T15:13:29.575Z,98496.91
2022-11-29T15:16:14.432Z,98504.06
2022-11-29T15:19:22.761Z,98497.00
2022-11-29T15:21:52.584Z,98506.47
2022-11-29T15:24:20.566Z,98509.78
2022-11-29T15:27:02.080Z,98501.22
2022-11-29T15:29:30.872Z,98506.19
2022-11-29T15:32:00.715Z,98505.97
2022-11-29T15:34:53.490Z,98505.38
2022-11-29T15:37:39.565Z,98497.41
2022-11-29T15:40:34.523Z,98504.78
2022-11-29T15:43:14.801Z,98500.22
2022-11-29T15:45:47.399Z,98505.44
2022-11-29T15:48:17.296Z,98495.66
2022-11-29T15:50:49.825Z,98502.34
2022-11-29T15:53:21.024Z,98505.28
2022-11-29T15:55:49.769Z,98513.50
2022-11-29T15:58:17.676Z,98507.13
2022-11-29T16:00:49.788Z,98514.59
2022-11-29T16:03:25.421Z,98521.13
2022-11-29T16:06:00.631Z,98516.91
2022-11-29T16:08:30.577Z,98519.31
2022-11-29T16:10:58.026Z,98516.84
2022-11-29T16:13:41.359Z,98522.84
2022-11-29T16:16:21.692Z,98519.44
2022-11-29T16:18:50.187Z,98523.72
2022-11-29T16:21:30.115Z,98519.53
2022-11-29T16:23:57.944Z,98519.94
2022-11-29T16:26:29.067Z,98521.00
2022-11-29T16:28:59.256Z,98528.34
2022-11-29T16:31:35.706Z,98534.12
2022-11-29T16:34:15.203Z,98532.31
2022-11-29T16:36:42.110Z,98531.88
2022-11-29T16:39:24.832Z,98538.41
2022-11-29T16:42:24.694Z,98530.19
2022-11-29T16:45:00.439Z,98542.25
2022-11-29T16:47:29.652Z,98527.91
2022-11-29T16:50:02.577Z,98529.37
2022-11-29T16:52:34.055Z,98537.13
2022-11-29T16:55:00.950Z,98528.94
2022-11-29T16:57:29.091Z,98536.38
2022-11-29T16:59:55.998Z,98534.97
2022-11-29T17:02:22.987Z,98531.09
2022-11-29T17:04:51.541Z,98530.97
2022-11-29T17:07:32.381Z,98534.31
2022-11-29T17:09:59.774Z,98541.06
2022-11-29T17:12:26.668Z,98548.03
2022-11-29T17:14:53.521Z,98550.19
2022-11-29T17:17:20.187Z,98552.53
2022-11-29T17:19:47.209Z,98553.59
2022-11-29T17:22:14.255Z,98553.66
2022-11-29T17:24:47.444Z,98551.25
2022-11-29T17:27:15.123Z,98556.44
2022-11-29T17:29:41.978Z,98567.19
2022-11-29T17:32:08.704Z,98563.44
2022-11-29T17:34:35.710Z,98570.81
2022-11-29T17:37:02.752Z,98578.84
2022-11-29T17:39:29.601Z,98576.78
2022-11-29T17:41:56.270Z,98580.81
2022-11-29T17:44:23.179Z,98579.41
2022-11-29T17:46:50.031Z,98571.94
2022-11-29T17:49:18.820Z,98577.94
2022-11-29T17:51:53.761Z,98566.94
2022-11-29T17:54:22.455Z,98570.72
2022-11-29T17:56:49.755Z,98577.38
2022-11-29T17:59:16.759Z,98570.16
2022-11-29T18:01:43.718Z,98581.03
2022-11-29T18:04:10.687Z,98582.41
2022-11-29T18:06:40.079Z,98578.19
2022-11-29T18:09:09.116Z,98571.88
2022-11-29T18:11:47.081Z,98573.56
2022-11-29T18:14:17.401Z,98579.75
2022-11-29T18:16:45.725Z,98571.38
2022-11-29T18:19:15.539Z,98579.81
2022-11-29T18:21:42.849Z,98584.53
2022-11-29T18:24:09.968Z,98581.03
2022-11-29T18:26:37.339Z,98583.09
2022-11-29T18:29:05.746Z,98577.25
2022-11-29T18:31:34.906Z,98572.38
2022-11-29T18:34:07.176Z,98573.94
2022-11-29T18:36:36.453Z,98571.94
2022-11-29T18:39:08.958Z,98576.16
2022-11-29T18:41:36.552Z,98572.75
2022-11-29T18:44:04.857Z,98571.50
2022-11-29T18:46:36.778Z,98573.38
2022-11-29T18:49:05.857Z,98570.16
2022-11-29T18:51:33.426Z,98577.47
2022-11-29T18:54:01.166Z,98575.91
2022-11-29T18:56:30.126Z,98576.06
2022-11-29T18:59:11.192Z,98596.59
2022-11-29T19:01:43.106Z,98585.28
2022-11-29T19:04:12.761Z,98581.25
2022-11-29T19:06:40.380Z,98585.78
2022-11-29T19:09:11.627Z,98582.06
2022-11-29T19:11:38.834Z,98580.59
2022-11-29T19:14:11.476Z,98584.16
2022-11-29T19:16:44.275Z,98588.50
2022-11-29T19:19:11.898Z,98587.62
2022-11-29T19:21:40.200Z,98591.87
2022-11-29T19:24:14.029Z,98589.94
2022-11-29T19:26:41.880Z,98587.31
2022-11-29T19:29:08.753Z,98591.84
2022-11-29T19:31:35.466Z,98596.03
2022-11-29T19:34:02.348Z,98596.47
2022-11-29T19:36:31.014Z,98598.53
2022-11-29T19:39:00.690Z,98601.00
2022-11-29T19:41:32.269Z,98592.41
2022-11-29T19:44:01.681Z,98594.59
2022-11-29T19:46:30.931Z,98590.84
2022-11-29T19:48:59.022Z,98589.34
2022-11-29T19:51:26.835Z,98586.38
2022-11-29T19:54:02.370Z,98594.72
2022-11-29T19:56:30.193Z,98594.00
2022-11-29T19:58:57.183Z,98592.91
2022-11-29T20:01:28.202Z,98591.03
2022-11-29T20:03:55.734Z,98587.16
2022-11-29T20:06:23.933Z,98587.62
2022-11-29T20:08:50.864Z,98590.31
2022-11-29T20:11:18.491Z,98584.91
2022-11-29T20:13:52.277Z,98583.00
2022-11-29T20:16:19.587Z,98579.56
2022-11-29T20:18:51.000Z,98591.69
2022-11-29T20:21:24.671Z,98596.88
2022-11-29T20:23:56.375Z,98597.13
2022-11-29T20:26:23.921Z,98600.88
2022-11-29T20:28:50.975Z,98602.12
2022-11-29T20:31:21.562Z,98608.00
2022-11-29T20:33:49.804Z,98606.34
2022-11-29T20:36:43.446Z,98608.66
2022-11-29T20:39:34.957Z,98611.03
2022-11-29T20:42:32.473Z,98607.53
2022-11-29T20:45:01.450Z,98605.84
2022-11-29T20:47:33.702Z,98607.03
2022-11-29T20:50:00.697Z,98608.66
2022-11-29T20:52:42.671Z,98601.00
2022-11-29T20:55:09.896Z,98601.69
2022-11-29T20:57:38.503Z,98596.06
2022-11-29T21:00:11.515Z,98598.47
2022-11-29T21:02:38.906Z,98600.38
2022-11-29T21:05:06.516Z,98603.28
2022-11-29T21:07:33.473Z,98601.88
2022-11-29T21:10:01.509Z,98594.22
2022-11-29T21:12:29.895Z,98599.06
2022-11-29T21:14:57.503Z,98597.81
2022-11-29T21:17:28.793Z,98596.56
2022-11-29T21:20:00.350Z,98597.00
2022-11-29T21:22:39.236Z,98590.19
2022-11-29T21:25:40.179Z,98594.62
2022-11-29T21:28:12.384Z,98595.41
2022-11-29T21:30:39.957Z,98591.16
2022-11-29T21:33:07.274Z,98600.91
2022-11-29T21:35:34.208Z,98597.53
2022-11-29T21:38:02.147Z,98594.91
2022-11-29T21:40:29.058Z,98593.22
2022-11-29T21:42:56.239Z,98589.63
2022-11-29T21:45:23.095Z,98586.25
2022-11-29T21:47:49.789Z,98586.59
2022-11-29T21:50:16.770Z,98594.69
2022-11-29T21:52:44.580Z,98593.50
2022-11-29T21:55:11.641Z,98591.25
2022-11-29T21:57:39.074Z,98586.59
2022-11-29T22:00:06.516Z,98586.91
2022-11-29T22:02:33.474Z,98580.06
2022-11-29T22:05:00.412Z,98586.13
2022-11-29T22:07:27.168Z,98587.78
2022-11-29T22:09:54.113Z,98583.59
2022-11-29T22:12:33.861Z,98585.13
2022-11-29T22:15:01.336Z,98579.28
2022-11-29T22:17:28.019Z,98577.53
2022-11-29T22:19:54.888Z,98573.50
2022-11-29T22:22:21.738Z,98575.94
2022-11-29T22:24:48.611Z,98571.75
2022-11-29T22:27:18.570Z,98572.59
2022-11-29T22:29:45.622Z,98581.06
2022-11-29T22:32:12.464Z,98572.44
2022-11-29T22:34:39.137Z,98570.91
2022-11-29T22:37:06.119Z,98573.09
2022-11-29T22:39:33.107Z,98562.03
2022-11-29T22:41:59.951Z,98567.19
2022-11-29T22:44:26.603Z,98571.16
2022-11-29T22:46:53.539Z,98562.59
2022-11-29T22:49:20.495Z,98568.41
2022-11-29T22:51:47.368Z,98575.44
2022-11-29T22:54:17.599Z,98573.06
2022-11-29T22:56:45.511Z,98573.09
2022-11-29T22:59:12.528Z,98568.78
2022-11-29T23:01:40.693Z,98573.81
2022-11-29T23:04:08.692Z,98576.31
2022-11-29T23:06:41.503Z,98569.91
2022-11-29T23:09:16.686Z,98572.22
2022-11-29T23:11:45.561Z,98566.16
2022-11-29T23:14:12.863Z,98575.37
2022-11-29T23:16:39.818Z,98570.34
2022-11-29T23:19:06.852Z,98571.06
2022-11-29T23:21:35.800Z,98571.16
2022-11-29T23:24:03.261Z,98562.28
2022-11-29T23:26:34.116Z,98557.16
2022-11-29T23:29:01.015Z,98557.44
2022-11-29T23:31:27.988Z,98557.16
2022-11-29T23:33:55.066Z,98561.09
2022-11-29T23:36:21.972Z,98556.03
2022-11-29T23:38:48.983Z,98558.03
2022-11-29T23:41:16.071Z,98556.97
2022-11-29T23:43:43.048Z,98570.41
2022-11-29T23:46:15.392Z,98567.00
2022-11-29T23:48:43.059Z,98563.44
2022-11-29T23:51:10.757Z,98565.84
2022-11-29T23:53:37.821Z,98556.03
2022-11-29T23:56:07.567Z,98567.06
2022-11-29T23:58:35.043Z,98562.28
